Time;durP1;ratioP1;P1;durP2;ratioP2;P2;SDS_P1;SDS_P2;PMS_P1;PMS_P2;Temp;Humidity;BMP_temperature;BMP_pressure;BME280_temperature;BME280_humidity;BME280_pressure;Samples;Min_cycle;Max_cycle;Signal;HPM_P1;HPM_P2
2022/01/14 00:01:51;;;;;;;18.10;13.23;;;2.00;99.90;;;;;;5014239;28;20210;-63
2022/01/14 00:04:17;;;;;;;18.77;12.57;;;1.90;99.90;;;;;;5014087;28;20249;-61
2022/01/14 00:06:45;;;;;;;20.57;12.77;;;1.80;99.90;;;;;;5013938;28;20207;-61
2022/01/14 00:09:13;;;;;;;20.67;12.00;;;1.80;99.90;;;;;;5014077;28;20211;-62
2022/01/14 00:11:45;;;;;;;24.23;18.37;;;1.90;99.90;;;;;;5013843;28;20227;-62
2022/01/14 00:14:22;;;;;;;18.07;11.93;;;1.90;99.90;;;;;;5013635;28;20258;-61
2022/01/14 00:16:50;;;;;;;18.27;12.57;;;2.00;99.90;;;;;;5013840;28;20301;-62
2022/01/14 00:19:17;;;;;;;19.60;13.10;;;2.00;99.90;;;;;;5013819;28;20207;-62
2022/01/14 00:21:45;;;;;;;17.70;12.67;;;1.90;99.90;;;;;;5013705;28;20207;-62
2022/01/14 00:24:24;;;;;;;16.73;12.07;;;1.90;99.90;;;;;;5037484;23;20238;-55
2022/01/14 00:32:25;;;;;;;19.47;12.67;;;2.00;99.90;;;;;;5013652;28;20606;-54
2022/01/14 00:34:52;;;;;;;18.23;13.13;;;2.00;99.90;;;;;;5013379;28;20230;-55
2022/01/14 00:37:20;;;;;;;17.77;12.73;;;2.00;99.90;;;;;;5013486;28;20287;-54
2022/01/14 00:39:47;;;;;;;20.27;13.23;;;1.90;99.90;;;;;;5013662;28;20214;-53
2022/01/14 00:42:14;;;;;;;17.57;11.90;;;2.00;99.90;;;;;;5013569;28;20230;-54
2022/01/14 00:44:41;;;;;;;20.03;13.17;;;2.00;99.90;;;;;;5013690;28;20347;-53
2022/01/14 00:47:08;;;;;;;20.73;13.73;;;2.00;99.90;;;;;;5013185;28;20217;-55
2022/01/14 00:49:35;;;;;;;20.42;15.05;;;1.90;99.90;;;;;;5012455;28;20442;-56
2022/01/14 00:52:02;;;;;;;19.93;13.97;;;1.90;99.90;;;;;;5013339;28;20227;-54
2022/01/14 00:54:30;;;;;;;18.00;13.10;;;2.00;99.90;;;;;;5013329;28;20235;-53
2022/01/14 00:57:15;;;;;;;20.43;12.47;;;2.00;99.90;;;;;;5012855;28;20334;-54
2022/01/14 00:59:41;;;;;;;19.00;12.13;;;2.00;99.90;;;;;;5013259;28;20215;-56
2022/01/14 01:02:08;;;;;;;21.63;13.57;;;2.00;99.90;;;;;;5012919;28;20203;-55
2022/01/14 01:04:38;;;;;;;18.97;12.77;;;2.00;99.90;;;;;;5012985;28;20222;-56
2022/01/14 01:07:08;;;;;;;18.83;12.67;;;2.00;99.90;;;;;;5012707;28;20301;-52
2022/01/14 01:09:40;;;;;;;18.50;13.13;;;2.00;99.90;;;;;;5013032;28;20214;-52
2022/01/14 01:12:12;;;;;;;17.40;12.80;;;2.00;99.90;;;;;;5012798;28;20250;-55
2022/01/14 01:14:44;;;;;;;18.97;12.57;;;2.10;99.90;;;;;;5012773;28;20234;-55
2022/01/14 01:17:12;;;;;;;18.33;12.30;;;2.10;99.90;;;;;;5012882;28;20207;-56
2022/01/14 01:19:39;;;;;;;17.67;11.63;;;2.10;99.90;;;;;;5012869;28;20246;-54
2022/01/14 01:22:05;;;;;;;16.07;11.60;;;2.10;99.90;;;;;;5013031;28;20198;-55
2022/01/14 01:24:32;;;;;;;16.70;11.87;;;2.20;99.90;;;;;;5012485;28;20668;-53
2022/01/14 01:27:04;;;;;;;18.43;11.20;;;2.20;99.90;;;;;;5012256;28;20211;-55
2022/01/14 01:29:46;;;;;;;19.27;12.23;;;2.10;99.90;;;;;;5012811;28;20213;-53
2022/01/14 01:32:13;;;;;;;17.17;12.23;;;2.10;99.90;;;;;;5012726;28;20222;-53
2022/01/14 01:34:40;;;;;;;20.23;12.27;;;2.00;99.90;;;;;;5012523;28;20718;-53
2022/01/14 01:37:07;;;;;;;16.80;11.90;;;2.00;99.90;;;;;;5012326;28;20574;-55
2022/01/14 01:39:36;;;;;;;18.87;12.27;;;1.90;99.90;;;;;;5012428;28;20207;-53
2022/01/14 01:42:06;;;;;;;20.70;12.67;;;1.80;99.90;;;;;;5012742;28;20206;-52
2022/01/14 01:44:34;;;;;;;18.00;12.80;;;1.80;99.90;;;;;;5012306;28;20714;-56
2022/01/14 01:47:01;;;;;;;19.50;12.10;;;1.70;99.90;;;;;;5012175;28;20214;-58
2022/01/14 01:49:32;;;;;;;18.50;12.27;;;1.60;99.90;;;;;;5012612;28;20389;-55
2022/01/14 01:52:00;;;;;;;18.10;11.77;;;1.60;99.90;;;;;;5012216;28;20230;-55
2022/01/14 01:54:28;;;;;;;18.80;12.23;;;1.60;99.90;;;;;;5012536;28;20237;-55
2022/01/14 01:56:56;;;;;;;16.83;12.13;;;1.50;99.90;;;;;;5012115;28;20203;-58
2022/01/14 01:59:26;;;;;;;18.70;11.77;;;1.50;99.90;;;;;;5012444;28;20211;-55
2022/01/14 02:01:53;;;;;;;18.57;12.30;;;1.50;99.90;;;;;;5012190;28;20624;-55
2022/01/14 02:04:20;;;;;;;18.00;12.27;;;1.40;99.90;;;;;;5012186;28;20218;-56
2022/01/14 02:06:48;;;;;;;19.97;12.60;;;1.30;99.90;;;;;;5012203;28;20214;-55
2022/01/14 02:09:14;;;;;;;20.57;13.47;;;1.30;99.90;;;;;;5013884;28;20234;-55
2022/01/14 02:11:41;;;;;;;20.03;12.67;;;1.30;99.90;;;;;;5016239;28;20230;-55
2022/01/14 02:14:25;;;;;;;19.83;13.17;;;1.20;99.90;;;;;;5016335;28;20211;-56
2022/01/14 02:17:26;;;;;;;21.17;12.53;;;1.10;99.90;;;;;;5015842;28;20210;-58
2022/01/14 02:22:53;;;;;;;19.97;13.13;;;1.00;99.90;;;;;;5016149;28;20210;-55
2022/01/14 02:25:28;;;;;;;23.70;14.33;;;1.00;99.90;;;;;;5016003;28;20254;-57
2022/01/14 02:27:56;;;;;;;21.63;13.43;;;1.10;99.90;;;;;;5015974;28;20272;-55
2022/01/14 02:30:24;;;;;;;18.50;13.07;;;1.20;99.90;;;;;;5016095;28;20298;-55
2022/01/14 02:32:51;;;;;;;20.23;12.47;;;1.40;99.90;;;;;;5016065;28;20237;-55
2022/01/14 02:35:19;;;;;;;19.93;13.37;;;1.40;99.90;;;;;;5015805;28;20222;-56
2022/01/14 02:37:46;;;;;;;18.77;11.93;;;1.50;99.90;;;;;;5015311;28;20210;-55
2022/01/14 02:40:14;;;;;;;20.00;12.17;;;1.50;99.90;;;;;;5015990;28;20215;-55
2022/01/14 02:42:40;;;;;;;17.83;12.70;;;1.60;99.90;;;;;;5015969;28;20281;-56
2022/01/14 02:45:11;;;;;;;19.73;13.10;;;1.60;99.90;;;;;;5015785;28;20227;-55
2022/01/14 02:47:38;;;;;;;20.90;13.73;;;1.60;99.90;;;;;;5015545;28;20211;-53
2022/01/14 02:50:07;;;;;;;20.67;13.03;;;1.60;99.90;;;;;;5015519;28;20215;-54
2022/01/14 02:52:54;;;;;;;22.10;13.30;;;1.70;99.90;;;;;;5015371;28;20832;-53
2022/01/14 02:55:23;;;;;;;19.97;13.50;;;1.70;99.90;;;;;;5015467;28;20231;-56
2022/01/14 02:57:52;;;;;;;21.33;12.87;;;1.50;99.90;;;;;;5015369;28;20206;-53
2022/01/14 03:00:20;;;;;;;19.13;13.07;;;1.30;99.90;;;;;;5015379;28;20203;-53
2022/01/14 03:02:48;;;;;;;19.27;12.47;;;1.10;99.90;;;;;;5015263;28;20223;-56
2022/01/14 03:05:17;;;;;;;17.47;12.60;;;0.90;99.90;;;;;;5015363;28;20230;-55
2022/01/14 03:07:46;;;;;;;18.80;12.43;;;0.80;99.90;;;;;;5015159;28;20215;-53
2022/01/14 03:10:14;;;;;;;19.03;12.60;;;0.70;99.90;;;;;;5015200;28;20265;-53
2022/01/14 03:12:43;;;;;;;18.07;12.80;;;0.70;99.90;;;;;;5015024;28;20276;-54
2022/01/14 03:15:11;;;;;;;18.00;11.97;;;0.60;99.90;;;;;;5014922;28;20223;-53
2022/01/14 03:17:39;;;;;;;20.53;12.83;;;0.60;99.90;;;;;;5014633;28;20630;-53
2022/01/14 03:20:08;;;;;;;19.90;12.70;;;0.60;99.90;;;;;;5014618;28;20301;-53
2022/01/14 03:22:36;;;;;;;18.20;12.03;;;0.70;99.90;;;;;;5015008;28;20269;-53
2022/01/14 03:27:50;;;;;;;19.03;12.17;;;0.90;99.90;;;;;;5014673;28;20205;-55
2022/01/14 03:30:16;;;;;;;24.63;13.67;;;1.00;99.90;;;;;;5015175;28;20211;-53
2022/01/14 03:32:44;;;;;;;19.60;12.60;;;1.10;99.90;;;;;;5014881;28;20285;-53
2022/01/14 03:35:12;;;;;;;20.10;12.80;;;1.20;99.90;;;;;;5014857;28;20238;-54
2022/01/14 03:37:39;;;;;;;18.40;12.60;;;1.10;99.90;;;;;;5014472;28;20218;-54
2022/01/14 03:40:08;;;;;;;20.83;13.47;;;1.00;99.90;;;;;;5014667;28;20214;-53
2022/01/14 03:42:35;;;;;;;20.03;12.80;;;0.90;99.90;;;;;;5014495;28;20257;-53
2022/01/14 03:45:02;;;;;;;19.60;13.17;;;0.90;99.90;;;;;;5014637;28;20234;-53
2022/01/14 03:47:28;;;;;;;21.17;12.90;;;1.00;99.90;;;;;;5014302;28;20599;-54
2022/01/14 03:49:55;;;;;;;20.37;13.20;;;1.00;99.90;;;;;;5014466;28;20322;-53
2022/01/14 03:52:22;;;;;;;18.63;12.57;;;0.90;99.90;;;;;;5014151;28;20779;-54
2022/01/14 03:54:49;;;;;;;22.23;13.47;;;1.00;99.90;;;;;;5014010;28;20229;-54
2022/01/14 03:57:17;;;;;;;21.57;14.33;;;1.00;99.90;;;;;;5014050;28;20249;-53
2022/01/14 03:59:44;;;;;;;19.73;13.40;;;1.10;99.90;;;;;;5014466;28;20257;-53
2022/01/14 04:02:11;;;;;;;22.07;13.87;;;1.10;99.90;;;;;;5014294;28;20203;-53
2022/01/14 04:04:37;;;;;;;22.43;13.10;;;1.20;99.90;;;;;;5013999;28;20227;-54
2022/01/14 04:07:04;;;;;;;21.30;13.80;;;1.30;99.90;;;;;;5014331;28;20659;-54
2022/01/14 04:09:36;;;;;;;19.63;14.03;;;1.40;99.90;;;;;;5014040;28;20203;-53
2022/01/14 04:12:03;;;;;;;20.13;13.03;;;1.50;99.90;;;;;;5014181;28;20223;-56
2022/01/14 04:17:16;;;;;;;18.43;12.93;;;1.50;99.90;;;;;;5013538;28;20209;-54
2022/01/14 04:19:42;;;;;;;19.43;12.73;;;1.30;99.90;;;;;;5013856;28;20410;-54
2022/01/14 04:22:09;;;;;;;20.33;13.63;;;1.10;99.90;;;;;;5014350;28;20691;-54
2022/01/14 04:24:36;;;;;;;17.33;12.60;;;1.00;99.90;;;;;;5013530;28;20722;-55
2022/01/14 04:27:02;;;;;;;17.83;12.30;;;0.80;99.90;;;;;;5013821;28;20280;-55
2022/01/14 04:29:32;;;;;;;20.90;13.33;;;0.80;99.90;;;;;;5013667;28;20214;-55
2022/01/14 04:31:59;;;;;;;19.87;13.20;;;0.70;99.90;;;;;;5012888;28;20227;-54
2022/01/14 04:34:25;;;;;;;20.70;13.67;;;0.70;99.90;;;;;;5013497;28;20792;-55
2022/01/14 04:36:52;;;;;;;20.97;13.03;;;0.80;99.90;;;;;;5013588;28;20218;-54
2022/01/14 04:39:19;;;;;;;17.47;12.23;;;0.90;99.90;;;;;;5013706;28;20215;-55
2022/01/14 04:41:46;;;;;;;20.23;13.20;;;1.00;99.90;;;;;;5013560;28;20753;-53
2022/01/14 04:44:13;;;;;;;20.13;13.60;;;1.00;99.90;;;;;;5013244;28;20211;-53
2022/01/14 04:49:30;;;;;;;18.87;13.20;;;0.80;99.90;;;;;;4997961;28;20206;-54
2022/01/14 04:51:57;;;;;;;19.23;13.50;;;0.90;99.90;;;;;;5013413;28;20231;-54
2022/01/14 04:54:24;;;;;;;21.50;13.93;;;0.90;99.90;;;;;;5013113;28;20586;-56
2022/01/14 04:56:51;;;;;;;19.27;13.30;;;0.90;99.90;;;;;;5012855;28;20217;-54
2022/01/14 04:59:18;;;;;;;18.97;13.27;;;0.90;99.90;;;;;;5013229;28;20314;-53
2022/01/14 05:01:46;;;;;;;20.80;13.40;;;0.80;99.90;;;;;;5013156;28;20269;-53
2022/01/14 05:04:13;;;;;;;18.17;12.87;;;0.70;99.90;;;;;;5013193;28;20226;-54
2022/01/14 05:06:42;;;;;;;19.50;13.73;;;0.60;99.90;;;;;;5013001;28;20211;-53
2022/01/14 05:09:18;;;;;;;21.17;13.00;;;0.50;99.90;;;;;;5012981;28;20294;-53
2022/01/14 05:11:52;;;;;;;20.90;13.73;;;0.50;99.90;;;;;;5012850;28;20217;-54
2022/01/14 05:14:19;;;;;;;18.00;12.90;;;0.60;99.90;;;;;;5013109;28;20202;-54
2022/01/14 05:16:47;;;;;;;23.77;14.63;;;0.80;99.90;;;;;;5012502;28;20203;-53
2022/01/14 05:19:14;;;;;;;21.97;14.50;;;0.80;99.90;;;;;;5012933;28;20284;-53
2022/01/14 05:21:40;;;;;;;22.30;14.53;;;0.90;99.90;;;;;;5012920;28;20214;-55
2022/01/14 05:24:07;;;;;;;22.67;15.17;;;0.90;99.90;;;;;;5012535;28;20693;-54
2022/01/14 05:26:35;;;;;;;23.07;13.83;;;0.90;99.90;;;;;;5012342;28;20215;-57
2022/01/14 05:29:02;;;;;;;19.93;13.13;;;1.00;99.90;;;;;;5012553;28;20207;-54
2022/01/14 05:31:42;;;;;;;19.80;13.93;;;1.00;99.90;;;;;;5012492;28;20210;-54
2022/01/14 05:34:11;;;;;;;20.53;14.03;;;1.00;99.90;;;;;;5012591;28;20215;-55
2022/01/14 05:36:37;;;;;;;23.17;14.40;;;1.10;99.90;;;;;;5012329;28;20218;-54
2022/01/14 05:39:06;;;;;;;19.23;14.17;;;1.10;99.90;;;;;;5012400;28;20261;-54
2022/01/14 05:41:34;;;;;;;18.70;13.43;;;1.10;99.90;;;;;;5012443;28;20745;-56
2022/01/14 05:44:01;;;;;;;22.23;14.37;;;1.20;99.90;;;;;;5012329;28;20628;-54
2022/01/14 05:46:28;;;;;;;19.63;13.43;;;1.20;99.90;;;;;;5012071;28;20265;-57
2022/01/14 05:48:55;;;;;;;21.77;15.03;;;1.20;99.90;;;;;;5012517;28;20210;-57
2022/01/14 05:51:23;;;;;;;21.80;14.00;;;1.20;99.90;;;;;;5012712;28;20206;-54
2022/01/14 05:53:50;;;;;;;23.60;14.80;;;1.20;99.90;;;;;;5012284;28;20235;-54
2022/01/14 05:56:16;;;;;;;21.70;14.57;;;1.20;99.90;;;;;;5012430;28;20234;-54
2022/01/14 05:58:43;;;;;;;23.67;14.37;;;1.20;99.90;;;;;;5012248;28;20203;-56
2022/01/14 06:01:10;;;;;;;24.23;14.60;;;1.20;99.90;;;;;;5012229;28;20218;-55
2022/01/14 06:03:36;;;;;;;21.67;15.67;;;1.20;99.90;;;;;;5012173;28;20206;-54
2022/01/14 06:06:04;;;;;;;23.40;14.17;;;1.20;99.90;;;;;;5011875;28;20659;-57
2022/01/14 06:08:32;;;;;;;21.83;14.77;;;1.30;99.90;;;;;;5012148;28;20285;-54
2022/01/14 06:10:59;;;;;;;21.27;14.70;;;1.40;99.90;;;;;;5012159;28;20591;-54
2022/01/14 06:13:25;;;;;;;24.13;16.20;;;1.40;99.90;;;;;;5012206;28;20230;-57
2022/01/14 06:15:52;;;;;;;24.40;14.97;;;1.50;99.90;;;;;;5012544;28;20230;-55
2022/01/14 06:18:19;;;;;;;21.57;14.97;;;1.50;99.90;;;;;;5012609;28;20281;-54
2022/01/14 06:20:46;;;;;;;18.97;14.00;;;1.60;99.90;;;;;;5011951;28;20261;-57
2022/01/14 06:23:13;;;;;;;24.33;16.23;;;1.60;99.90;;;;;;5012395;28;20203;-57
2022/01/14 06:25:41;;;;;;;19.63;14.17;;;1.50;99.90;;;;;;5012573;28;20653;-56
2022/01/14 06:28:08;;;;;;;21.07;14.33;;;1.50;99.90;;;;;;5011977;28;20207;-56
2022/01/14 06:30:35;;;;;;;20.47;14.10;;;1.30;99.90;;;;;;5012111;28;20223;-55
2022/01/14 06:33:01;;;;;;;20.10;14.50;;;1.30;99.90;;;;;;5011916;28;20654;-55
2022/01/14 06:35:28;;;;;;;21.47;15.17;;;1.40;99.90;;;;;;5011696;28;20226;-56
2022/01/14 06:37:57;;;;;;;21.50;15.30;;;1.40;99.90;;;;;;5011810;28;20211;-55
2022/01/14 06:40:24;;;;;;;20.93;14.63;;;1.50;99.90;;;;;;5012037;28;20273;-55
2022/01/14 06:42:52;;;;;;;21.93;15.33;;;1.60;99.90;;;;;;5012041;28;20215;-55
2022/01/14 06:45:19;;;;;;;18.87;13.97;;;1.50;99.90;;;;;;5011679;28;20785;-55
2022/01/14 06:47:46;;;;;;;22.60;15.00;;;1.50;99.90;;;;;;5011556;28;20818;-55
2022/01/14 06:50:13;;;;;;;20.63;14.37;;;1.50;99.90;;;;;;5012128;28;20215;-55
2022/01/14 06:52:40;;;;;;;19.90;14.27;;;1.50;99.90;;;;;;5011852;28;20223;-54
2022/01/14 06:55:08;;;;;;;19.10;14.20;;;1.40;99.90;;;;;;5013084;28;20227;-57
2022/01/14 06:57:35;;;;;;;18.13;12.97;;;1.40;99.90;;;;;;5015465;28;20207;-56
2022/01/14 07:00:04;;;;;;;19.47;13.60;;;1.40;99.90;;;;;;5015382;28;20599;-55
2022/01/14 07:02:31;;;;;;;23.47;14.70;;;1.40;99.90;;;;;;5014996;28;20254;-56
2022/01/14 07:04:58;;;;;;;20.13;14.10;;;1.40;99.90;;;;;;5015054;28;20719;-55
2022/01/14 07:07:24;;;;;;;22.00;14.53;;;1.40;99.90;;;;;;5015390;28;20214;-55
2022/01/14 07:09:57;;;;;;;19.43;12.97;;;1.50;99.90;;;;;;5015252;28;20222;-56
2022/01/14 07:12:25;;;;;;;20.67;14.57;;;1.50;99.90;;;;;;5015269;28;20238;-55
2022/01/14 07:14:53;;;;;;;20.13;13.30;;;1.50;99.90;;;;;;5014781;28;20226;-55
2022/01/14 07:17:22;;;;;;;18.20;13.33;;;1.40;99.90;;;;;;5015179;28;20218;-55
2022/01/14 07:19:52;;;;;;;21.30;14.47;;;1.40;99.90;;;;;;5015052;28;20207;-55
2022/01/14 07:22:19;;;;;;;21.23;13.50;;;1.50;99.90;;;;;;5015089;28;20338;-57
2022/01/14 07:24:46;;;;;;;20.40;13.33;;;1.50;99.90;;;;;;5014754;28;20235;-56
2022/01/14 07:27:13;;;;;;;19.53;13.23;;;1.50;99.90;;;;;;5014576;28;20211;-55
2022/01/14 07:29:41;;;;;;;48.13;26.53;;;1.40;99.90;;;;;;5014545;28;20215;-55
2022/01/14 07:32:08;;;;;;;21.70;14.53;;;1.30;99.90;;;;;;5014686;28;20207;-56
2022/01/14 07:34:36;;;;;;;24.43;14.87;;;1.30;99.90;;;;;;5014453;28;20238;-55
2022/01/14 07:37:03;;;;;;;21.03;14.93;;;1.30;99.90;;;;;;5014289;28;20207;-55
2022/01/14 07:39:30;;;;;;;24.50;16.07;;;1.30;99.90;;;;;;5014769;28;20261;-56
2022/01/14 07:41:57;;;;;;;20.93;15.03;;;1.30;99.90;;;;;;5014350;28;20586;-55
2022/01/14 07:44:23;;;;;;;21.27;14.10;;;1.30;99.90;;;;;;5014587;28;20662;-55
2022/01/14 07:46:50;;;;;;;19.90;13.40;;;1.40;99.90;;;;;;5014549;28;20206;-55
2022/01/14 07:49:17;;;;;;;18.67;13.60;;;1.50;99.90;;;;;;5014712;28;20211;-55
2022/01/14 07:51:45;;;;;;;21.23;14.23;;;1.60;99.90;;;;;;5014419;28;20733;-56
2022/01/14 07:54:12;;;;;;;17.70;13.10;;;1.80;99.90;;;;;;5014285;28;20223;-55
2022/01/14 07:56:41;;;;;;;21.80;14.80;;;1.90;99.90;;;;;;5013908;28;20211;-56
2022/01/14 07:59:08;;;;;;;20.83;13.77;;;2.00;99.90;;;;;;5014318;28;20261;-56
2022/01/14 08:01:37;;;;;;;21.47;13.60;;;2.00;99.90;;;;;;5014400;28;20341;-55
2022/01/14 08:04:05;;;;;;;20.33;14.17;;;2.10;99.90;;;;;;5014260;28;20213;-57
2022/01/14 08:06:33;;;;;;;19.30;13.20;;;2.00;99.90;;;;;;5013197;28;20207;-55
2022/01/14 08:09:02;;;;;;;19.20;13.37;;;2.10;99.90;;;;;;5014207;28;20234;-57
2022/01/14 08:11:28;;;;;;;20.07;13.33;;;2.00;99.90;;;;;;5014491;28;20218;-56
2022/01/14 08:13:55;;;;;;;21.13;14.33;;;2.00;99.90;;;;;;5013925;28;20304;-55
2022/01/14 08:16:22;;;;;;;20.70;13.73;;;1.90;99.90;;;;;;5013839;28;20226;-55
2022/01/14 08:18:48;;;;;;;18.70;13.40;;;1.90;99.90;;;;;;5013855;28;20214;-57
2022/01/14 08:21:16;;;;;;;19.33;13.60;;;1.90;99.90;;;;;;5013716;28;20214;-56
2022/01/14 08:23:42;;;;;;;21.93;13.60;;;1.90;99.90;;;;;;5013928;28;20621;-56
2022/01/14 08:26:11;;;;;;;18.43;13.47;;;2.00;99.90;;;;;;5013437;28;20250;-56
2022/01/14 08:28:37;;;;;;;20.90;14.90;;;2.20;99.90;;;;;;5014080;28;20203;-56
2022/01/14 08:31:04;;;;;;;18.60;13.63;;;2.30;99.90;;;;;;5013808;28;20209;-56
2022/01/14 08:33:31;;;;;;;19.80;14.10;;;2.50;99.90;;;;;;5013688;28;20718;-57
2022/01/14 08:35:58;;;;;;;19.20;14.07;;;2.60;99.90;;;;;;5013496;28;20227;-56
2022/01/14 08:38:24;;;;;;;24.53;14.40;;;2.70;99.90;;;;;;5013344;28;20234;-56
2022/01/14 08:40:51;;;;;;;26.13;14.23;;;2.80;99.90;;;;;;5013647;28;20294;-57
2022/01/14 08:43:19;;;;;;;22.57;14.60;;;3.00;99.90;;;;;;5013559;28;20202;-56
2022/01/14 08:45:46;;;;;;;39.70;26.70;;;3.10;99.90;;;;;;5013198;28;20258;-65
2022/01/14 08:48:13;;;;;;;20.00;14.50;;;3.30;99.90;;;;;;5013087;28;20211;-56
2022/01/14 08:50:41;;;;;;;20.97;14.03;;;3.30;99.90;;;;;;5013262;28;20218;-55
2022/01/14 08:53:13;;;;;;;20.70;14.27;;;3.40;99.90;;;;;;5013425;28;20222;-55
2022/01/14 08:55:41;;;;;;;18.70;13.23;;;3.60;99.90;;;;;;5013324;28;20319;-56
2022/01/14 08:58:09;;;;;;;18.63;12.77;;;3.70;99.90;;;;;;5012933;28;20265;-55
2022/01/14 09:00:37;;;;;;;21.33;13.13;;;3.80;99.90;;;;;;5013377;28;20615;-55
2022/01/14 09:03:05;;;;;;;20.20;13.77;;;3.90;99.90;;;;;;5013268;28;20202;-56
2022/01/14 09:05:32;;;;;;;20.40;13.07;;;4.00;99.90;;;;;;5012959;28;20231;-56
2022/01/14 09:08:01;;;;;;;17.97;12.43;;;4.10;99.90;;;;;;5013140;28;20217;-55
2022/01/14 09:10:28;;;;;;;16.83;12.30;;;4.30;99.90;;;;;;5013258;28;20207;-55
2022/01/14 09:12:55;;;;;;;23.47;14.33;;;4.40;99.90;;;;;;5012786;28;20628;-55
2022/01/14 09:15:22;;;;;;;19.10;13.43;;;4.50;99.90;;;;;;5013019;28;20603;-55
2022/01/14 09:17:50;;;;;;;17.20;12.90;;;4.60;99.90;;;;;;5012511;28;20203;-55
2022/01/14 09:20:17;;;;;;;20.63;14.77;;;4.70;99.90;;;;;;5013170;28;20207;-55
2022/01/14 09:22:48;;;;;;;20.57;14.03;;;4.80;99.90;;;;;;5012917;28;20698;-55
2022/01/14 09:25:15;;;;;;;18.63;13.10;;;4.90;99.90;;;;;;5012865;28;20234;-55
2022/01/14 09:27:42;;;;;;;21.53;14.47;;;4.90;99.90;;;;;;5012620;28;20207;-57
2022/01/14 09:30:10;;;;;;;18.33;12.40;;;5.00;99.90;;;;;;5012802;28;20257;-56
2022/01/14 09:32:37;;;;;;;18.40;12.47;;;5.10;99.90;;;;;;5012624;28;20633;-55
2022/01/14 09:35:07;;;;;;;21.30;12.90;;;5.10;99.90;;;;;;5012794;28;20289;-55
2022/01/14 09:37:35;;;;;;;15.33;11.37;;;5.20;99.90;;;;;;5012749;28;20305;-55
2022/01/14 09:40:02;;;;;;;19.23;12.70;;;5.20;99.90;;;;;;5012729;28;20234;-55
2022/01/14 09:42:30;;;;;;;17.07;12.17;;;5.40;99.90;;;;;;5012587;28;20211;-56
2022/01/14 09:44:57;;;;;;;18.47;12.20;;;5.40;99.90;;;;;;5012386;28;20607;-56
2022/01/14 09:47:24;;;;;;;14.70;11.80;;;5.50;99.90;;;;;;5012403;28;20690;-55
2022/01/14 09:49:51;;;;;;;16.97;11.37;;;5.60;99.90;;;;;;5012967;28;20210;-57
2022/01/14 09:52:19;;;;;;;15.67;11.30;;;5.70;99.90;;;;;;5012755;28;20261;-55
2022/01/14 09:54:48;;;;;;;16.53;12.50;;;5.70;99.90;;;;;;5012241;28;20702;-55
2022/01/14 09:57:16;;;;;;;17.93;12.77;;;5.70;99.90;;;;;;5012114;28;20206;-55
2022/01/14 09:59:43;;;;;;;19.73;12.73;;;5.30;99.90;;;;;;5012722;28;20230;-55
2022/01/14 10:02:27;;;;;;;20.80;12.63;;;5.20;99.90;;;;;;5012271;28;20269;-55
2022/01/14 10:04:54;;;;;;;17.83;12.20;;;5.10;99.90;;;;;;5012510;28;20235;-55
2022/01/14 10:07:22;;;;;;;18.30;13.07;;;5.10;99.90;;;;;;5011995;28;20207;-55
2022/01/14 10:09:57;;;;;;;18.27;12.40;;;5.20;99.90;;;;;;5012273;28;20240;-55
2022/01/14 10:12:24;;;;;;;18.87;12.70;;;5.50;99.90;;;;;;5012756;28;20638;-56
2022/01/14 10:14:56;;;;;;;18.47;13.27;;;5.50;99.90;;;;;;5012213;28;20280;-55
2022/01/14 10:17:24;;;;;;;17.70;12.93;;;5.40;99.90;;;;;;5012064;28;20203;-55
2022/01/14 10:19:51;;;;;;;17.80;12.77;;;5.30;99.90;;;;;;5012129;28;20679;-56
2022/01/14 10:22:20;;;;;;;19.80;12.80;;;5.20;99.90;;;;;;5012098;28;20206;-56
2022/01/14 10:24:56;;;;;;;15.93;12.57;;;5.40;99.90;;;;;;5012153;28;20235;-55
2022/01/14 10:27:34;;;;;;;20.80;12.47;;;5.60;99.90;;;;;;5012087;28;20257;-55
2022/01/14 10:30:13;;;;;;;18.27;12.63;;;5.70;99.90;;;;;;5013128;28;20554;-55
2022/01/14 10:32:41;;;;;;;15.27;11.27;;;5.40;99.90;;;;;;5015954;28;20626;-57
2022/01/14 10:35:09;;;;;;;15.63;11.77;;;5.30;99.90;;;;;;5016040;28;20603;-57
2022/01/14 10:37:36;;;;;;;18.07;12.37;;;5.20;99.90;;;;;;5015899;28;20324;-56
2022/01/14 10:40:07;;;;;;;18.37;11.90;;;5.40;99.90;;;;;;5016162;28;20203;-55
2022/01/14 10:42:35;;;;;;;16.33;11.93;;;5.40;99.90;;;;;;5015907;28;20210;-55
2022/01/14 10:45:22;;;;;;;19.67;11.90;;;5.40;99.90;;;;;;5015647;28;20318;-56
2022/01/14 10:47:54;;;;;;;17.57;12.33;;;5.50;99.90;;;;;;5015670;28;20297;-56
2022/01/14 10:50:28;;;;;;;22.03;13.00;;;5.50;99.90;;;;;;5015848;28;20210;-56
2022/01/14 10:52:54;;;;;;;17.53;12.07;;;5.50;99.90;;;;;;5015565;28;20214;-56
2022/01/14 10:55:31;;;;;;;17.87;12.07;;;5.60;99.90;;;;;;5015495;28;20725;-56
2022/01/14 10:57:58;;;;;;;16.37;12.03;;;5.60;99.90;;;;;;5015095;28;20210;-56
2022/01/14 11:00:26;;;;;;;16.03;12.13;;;5.80;99.90;;;;;;5015809;28;20207;-55
2022/01/14 11:02:53;;;;;;;18.00;12.20;;;6.10;99.90;;;;;;5015543;28;20253;-55
2022/01/14 11:05:22;;;;;;;17.70;12.57;;;6.40;99.90;;;;;;5015409;28;20350;-56
2022/01/14 11:07:50;;;;;;;17.50;12.73;;;6.60;99.90;;;;;;5015128;28;20202;-57
2022/01/14 11:10:22;;;;;;;19.23;12.90;;;6.70;99.90;;;;;;5015121;28;20215;-56
2022/01/14 11:12:51;;;;;;;16.47;12.33;;;6.60;99.90;;;;;;5015486;28;20210;-58
2022/01/14 11:15:18;;;;;;;17.97;11.77;;;6.60;99.90;;;;;;5015215;28;20230;-56
2022/01/14 11:17:50;;;;;;;19.33;12.57;;;6.30;99.90;;;;;;5014731;28;20289;-57
2022/01/14 11:20:23;;;;;;;15.20;11.73;;;6.40;99.90;;;;;;5015119;28;20273;-58
2022/01/14 11:25:39;;;;;;;17.37;13.10;;;6.80;99.90;;;;;;5015025;28;20277;-57
2022/01/14 11:28:09;;;;;;;16.43;12.73;;;7.20;99.90;;;;;;5014935;28;20314;-58
2022/01/14 11:30:38;;;;;;;15.10;11.17;;;7.50;99.90;;;;;;5014926;28;20211;-58
2022/01/14 11:33:07;;;;;;;16.77;12.10;;;7.50;99.90;;;;;;5014690;28;20629;-60
2022/01/14 11:35:36;;;;;;;15.77;10.83;;;7.50;99.90;;;;;;5014331;28;20234;-59
2022/01/14 11:38:04;;;;;;;15.53;11.73;;;7.50;99.90;;;;;;5014297;28;20306;-58
2022/01/14 11:40:50;;;;;;;15.83;11.70;;;7.40;99.90;;;;;;5014390;28;20291;-58
2022/01/14 11:43:43;;;;;;;14.50;11.07;;;7.40;99.90;;;;;;5014889;28;20289;-58
2022/01/14 11:46:13;;;;;;;15.20;12.00;;;7.70;99.90;;;;;;5014658;28;20591;-59
2022/01/14 11:48:45;;;;;;;18.33;13.07;;;8.00;99.90;;;;;;5014289;28;20217;-58
2022/01/14 11:51:15;;;;;;;16.53;11.77;;;8.20;99.90;;;;;;5014593;28;20304;-59
2022/01/14 11:53:50;;;;;;;14.27;11.57;;;8.20;99.90;;;;;;5014327;28;20238;-58
2022/01/14 11:56:57;;;;;;;14.83;12.10;;;8.20;99.90;;;;;;5014299;28;20252;-57
2022/01/14 11:59:45;;;;;;;12.77;10.50;;;8.40;99.90;;;;;;5014267;28;20689;-57
2022/01/14 12:02:40;;;;;;;16.60;11.37;;;8.40;99.90;;;;;;5013911;28;20211;-58
2022/01/14 12:05:14;;;;;;;13.77;11.13;;;8.20;99.90;;;;;;5004822;28;20603;-57
2022/01/14 12:08:21;;;;;;;18.30;13.13;;;8.20;99.90;;;;;;5013764;28;20219;-57
2022/01/14 12:10:51;;;;;;;15.83;11.30;;;8.50;99.90;;;;;;5014116;28;20213;-58
2022/01/14 12:13:22;;;;;;;15.83;10.47;;;8.60;99.90;;;;;;5013908;28;20214;-57
2022/01/14 12:15:57;;;;;;;14.10;10.43;;;8.50;99.90;;;;;;5013812;28;20237;-58
2022/01/14 12:19:16;;;;;;;13.63;10.40;;;8.20;99.90;;;;;;5013482;28;20224;-59
2022/01/14 12:21:57;;;;;;;15.83;10.47;;;8.10;99.90;;;;;;5014369;28;20218;-58
2022/01/14 12:27:24;;;;;;;14.03;10.43;;;8.70;99.90;;;;;;4992317;28;20256;-61
2022/01/14 12:29:52;;;;;;;18.50;10.53;;;9.00;99.90;;;;;;4994231;28;20211;-70
2022/01/14 12:32:22;;;;;;;14.33;10.47;;;9.20;99.90;;;;;;4993983;28;20683;-61
2022/01/14 12:35:01;;;;;;;14.27;10.03;;;9.30;99.90;;;;;;4993926;28;20282;-61
2022/01/14 12:37:30;;;;;;;13.60;10.63;;;9.20;99.90;;;;;;4990110;28;20815;-66
2022/01/14 12:39:57;;;;;;;17.70;12.37;;;9.00;99.90;;;;;;4993595;28;20238;-62
2022/01/14 12:42:25;;;;;;;13.87;10.20;;;8.90;99.90;;;;;;4993858;28;20234;-66
2022/01/14 12:44:53;;;;;;;15.80;11.70;;;8.70;99.90;;;;;;4993718;28;20223;-66
2022/01/14 12:47:26;;;;;;;14.33;10.67;;;8.70;99.90;;;;;;4993615;28;20208;-65
2022/01/14 12:49:53;;;;;;;11.47;9.17;;;8.90;99.90;;;;;;4995830;28;20648;-64
2022/01/14 12:52:30;;;;;;;13.13;9.33;;;8.90;99.90;;;;;;4997136;28;20207;-63
2022/01/14 12:54:57;;;;;;;11.77;9.50;;;8.90;99.90;;;;;;4998900;28;20231;-62
2022/01/14 12:57:25;;;;;;;13.87;10.20;;;8.80;99.90;;;;;;4993992;28;20254;-65
2022/01/14 12:59:53;;;;;;;12.97;10.10;;;8.70;99.90;;;;;;4994137;28;20208;-60
2022/01/14 13:02:22;;;;;;;12.40;9.70;;;8.60;99.90;;;;;;4993476;28;20258;-61
2022/01/14 13:05:01;;;;;;;12.53;9.87;;;8.90;99.90;;;;;;4992958;28;20738;-61
2022/01/14 13:07:29;;;;;;;11.27;9.27;;;8.90;99.90;;;;;;4993299;28;20211;-61
2022/01/14 13:09:56;;;;;;;12.30;9.97;;;8.80;99.90;;;;;;4993452;28;20262;-61
2022/01/14 13:12:28;;;;;;;34.70;28.37;;;8.70;99.90;;;;;;4993260;28;20211;-61